sensor_id;sensor_type;location;lat;lon;timestamp;P1;durP1;ratioP1;P2;durP2;ratioP2
24373;SDS011;12498;50.880;12.096;2022-10-31T00:01:08;15.15;;;5.82;;
24373;SDS011;12498;50.880;12.096;2022-10-31T00:03:37;12.43;;;5.80;;
24373;SDS011;12498;50.880;12.096;2022-10-31T00:06:03;15.65;;;5.85;;
24373;SDS011;12498;50.880;12.096;2022-10-31T00:08:28;16.77;;;6.57;;
24373;SDS011;12498;50.880;12.096;2022-10-31T00:10:54;25.13;;;8.00;;
24373;SDS011;12498;50.880;12.096;2022-10-31T00:13:19;18.58;;;7.05;;
24373;SDS011;12498;50.880;12.096;2022-10-31T00:15:45;17.48;;;5.97;;
24373;SDS011;12498;50.880;12.096;2022-10-31T00:18:10;18.92;;;6.20;;
24373;SDS011;12498;50.880;12.096;2022-10-31T00:20:36;15.10;;;5.95;;
24373;SDS011;12498;50.880;12.096;2022-10-31T00:23:02;14.38;;;6.00;;
24373;SDS011;12498;50.880;12.096;2022-10-31T00:25:32;15.02;;;6.22;;
24373;SDS011;12498;50.880;12.096;2022-10-31T00:28:02;17.15;;;6.22;;
24373;SDS011;12498;50.880;12.096;2022-10-31T00:30:28;16.42;;;6.32;;
24373;SDS011;12498;50.880;12.096;2022-10-31T00:32:53;15.80;;;6.70;;
24373;SDS011;12498;50.880;12.096;2022-10-31T00:35:19;13.13;;;5.90;;
24373;SDS011;12498;50.880;12.096;2022-10-31T00:37:45;18.60;;;6.88;;
24373;SDS011;12498;50.880;12.096;2022-10-31T00:40:10;22.70;;;8.23;;
24373;SDS011;12498;50.880;12.096;2022-10-31T00:42:36;38.78;;;10.88;;
24373;SDS011;12498;50.880;12.096;2022-10-31T00:45:02;34.78;;;9.15;;
24373;SDS011;12498;50.880;12.096;2022-10-31T00:47:28;34.55;;;9.68;;
24373;SDS011;12498;50.880;12.096;2022-10-31T00:49:53;20.65;;;7.72;;
24373;SDS011;12498;50.880;12.096;2022-10-31T00:52:19;18.27;;;7.10;;
24373;SDS011;12498;50.880;12.096;2022-10-31T00:54:44;18.20;;;7.43;;
24373;SDS011;12498;50.880;12.096;2022-10-31T00:57:10;24.05;;;9.40;;
24373;SDS011;12498;50.880;12.096;2022-10-31T00:59:35;26.98;;;8.20;;
24373;SDS011;12498;50.880;12.096;2022-10-31T01:02:01;19.98;;;7.63;;
24373;SDS011;12498;50.880;12.096;2022-10-31T01:04:26;21.92;;;8.00;;
24373;SDS011;12498;50.880;12.096;2022-10-31T01:06:52;30.60;;;10.18;;
24373;SDS011;12498;50.880;12.096;2022-10-31T01:09:18;25.88;;;9.30;;
24373;SDS011;12498;50.880;12.096;2022-10-31T01:11:43;18.25;;;7.13;;
24373;SDS011;12498;50.880;12.096;2022-10-31T01:14:10;22.02;;;7.63;;
24373;SDS011;12498;50.880;12.096;2022-10-31T01:16:35;25.65;;;7.60;;
24373;SDS011;12498;50.880;12.096;2022-10-31T01:19:01;22.05;;;7.88;;
24373;SDS011;12498;50.880;12.096;2022-10-31T01:21:27;20.83;;;7.07;;
24373;SDS011;12498;50.880;12.096;2022-10-31T01:23:54;20.27;;;7.63;;
24373;SDS011;12498;50.880;12.096;2022-10-31T01:26:21;18.23;;;7.55;;
24373;SDS011;12498;50.880;12.096;2022-10-31T01:28:50;19.52;;;7.47;;
24373;SDS011;12498;50.880;12.096;2022-10-31T01:31:18;24.07;;;7.80;;
24373;SDS011;12498;50.880;12.096;2022-10-31T01:33:45;22.98;;;8.20;;
24373;SDS011;12498;50.880;12.096;2022-10-31T01:36:22;19.83;;;7.28;;
24373;SDS011;12498;50.880;12.096;2022-10-31T01:38:50;20.55;;;7.50;;
24373;SDS011;12498;50.880;12.096;2022-10-31T01:41:19;27.90;;;9.05;;
24373;SDS011;12498;50.880;12.096;2022-10-31T01:46:24;25.98;;;8.60;;
24373;SDS011;12498;50.880;12.096;2022-10-31T01:48:51;32.10;;;9.10;;
24373;SDS011;12498;50.880;12.096;2022-10-31T01:51:19;26.63;;;8.90;;
24373;SDS011;12498;50.880;12.096;2022-10-31T01:53:48;36.38;;;11.25;;
24373;SDS011;12498;50.880;12.096;2022-10-31T01:56:17;33.63;;;9.25;;
24373;SDS011;12498;50.880;12.096;2022-10-31T01:58:43;32.55;;;10.23;;
24373;SDS011;12498;50.880;12.096;2022-10-31T02:01:11;20.90;;;9.10;;
24373;SDS011;12498;50.880;12.096;2022-10-31T02:03:39;30.73;;;9.75;;
24373;SDS011;12498;50.880;12.096;2022-10-31T02:06:06;25.23;;;9.73;;
24373;SDS011;12498;50.880;12.096;2022-10-31T02:08:37;47.63;;;14.93;;
24373;SDS011;12498;50.880;12.096;2022-10-31T02:11:05;26.20;;;8.48;;
24373;SDS011;12498;50.880;12.096;2022-10-31T02:13:32;25.25;;;9.32;;
24373;SDS011;12498;50.880;12.096;2022-10-31T02:15:59;30.90;;;10.13;;
24373;SDS011;12498;50.880;12.096;2022-10-31T02:18:26;66.38;;;17.45;;
24373;SDS011;12498;50.880;12.096;2022-10-31T02:43:05;39.10;;;10.68;;
24373;SDS011;12498;50.880;12.096;2022-10-31T02:45:45;26.70;;;8.88;;
24373;SDS011;12498;50.880;12.096;2022-10-31T02:48:39;22.63;;;8.68;;
24373;SDS011;12498;50.880;12.096;2022-10-31T02:51:09;25.40;;;9.57;;
24373;SDS011;12498;50.880;12.096;2022-10-31T02:53:36;24.10;;;8.80;;
24373;SDS011;12498;50.880;12.096;2022-10-31T02:56:16;24.45;;;8.82;;
24373;SDS011;12498;50.880;12.096;2022-10-31T02:58:45;27.75;;;8.57;;
24373;SDS011;12498;50.880;12.096;2022-10-31T03:01:16;27.40;;;8.80;;
24373;SDS011;12498;50.880;12.096;2022-10-31T03:04:06;25.40;;;7.90;;
24373;SDS011;12498;50.880;12.096;2022-10-31T03:06:42;26.45;;;8.40;;
24373;SDS011;12498;50.880;12.096;2022-10-31T03:09:25;17.30;;;8.02;;
24373;SDS011;12498;50.880;12.096;2022-10-31T03:14:41;27.08;;;7.95;;
24373;SDS011;12498;50.880;12.096;2022-10-31T03:17:22;23.50;;;8.32;;
24373;SDS011;12498;50.880;12.096;2022-10-31T03:19:58;21.67;;;7.70;;
24373;SDS011;12498;50.880;12.096;2022-10-31T03:24:55;25.42;;;9.50;;
24373;SDS011;12498;50.880;12.096;2022-10-31T03:27:23;24.83;;;9.18;;
24373;SDS011;12498;50.880;12.096;2022-10-31T03:29:52;22.60;;;6.55;;
24373;SDS011;12498;50.880;12.096;2022-10-31T03:32:34;21.60;;;8.10;;
24373;SDS011;12498;50.880;12.096;2022-10-31T03:35:06;17.50;;;8.30;;
24373;SDS011;12498;50.880;12.096;2022-10-31T03:37:34;22.75;;;8.63;;
24373;SDS011;12498;50.880;12.096;2022-10-31T03:40:02;27.38;;;9.63;;
24373;SDS011;12498;50.880;12.096;2022-10-31T03:42:31;20.53;;;7.60;;
24373;SDS011;12498;50.880;12.096;2022-10-31T03:45:01;28.73;;;9.30;;
24373;SDS011;12498;50.880;12.096;2022-10-31T03:47:29;23.95;;;8.88;;
24373;SDS011;12498;50.880;12.096;2022-10-31T03:49:55;27.55;;;9.48;;
24373;SDS011;12498;50.880;12.096;2022-10-31T03:52:24;23.48;;;9.32;;
24373;SDS011;12498;50.880;12.096;2022-10-31T03:55:10;20.13;;;8.60;;
24373;SDS011;12498;50.880;12.096;2022-10-31T03:57:45;37.35;;;11.27;;
24373;SDS011;12498;50.880;12.096;2022-10-31T04:00:19;24.30;;;8.75;;
24373;SDS011;12498;50.880;12.096;2022-10-31T04:02:46;23.00;;;8.18;;
24373;SDS011;12498;50.880;12.096;2022-10-31T04:05:20;17.35;;;7.78;;
24373;SDS011;12498;50.880;12.096;2022-10-31T04:07:47;19.30;;;8.27;;
24373;SDS011;12498;50.880;12.096;2022-10-31T04:10:16;22.85;;;7.50;;
24373;SDS011;12498;50.880;12.096;2022-10-31T04:12:44;17.48;;;7.68;;
24373;SDS011;12498;50.880;12.096;2022-10-31T04:15:15;19.98;;;8.05;;
24373;SDS011;12498;50.880;12.096;2022-10-31T04:17:41;21.65;;;8.38;;
24373;SDS011;12498;50.880;12.096;2022-10-31T04:20:10;18.95;;;7.97;;
24373;SDS011;12498;50.880;12.096;2022-10-31T04:22:35;24.33;;;7.85;;
24373;SDS011;12498;50.880;12.096;2022-10-31T04:25:01;17.70;;;7.72;;
24373;SDS011;12498;50.880;12.096;2022-10-31T04:27:27;18.33;;;8.02;;
24373;SDS011;12498;50.880;12.096;2022-10-31T04:29:52;17.17;;;7.88;;
24373;SDS011;12498;50.880;12.096;2022-10-31T04:32:18;20.58;;;8.00;;
24373;SDS011;12498;50.880;12.096;2022-10-31T04:34:43;22.40;;;8.07;;
24373;SDS011;12498;50.880;12.096;2022-10-31T04:37:09;21.95;;;9.15;;
24373;SDS011;12498;50.880;12.096;2022-10-31T04:39:34;33.65;;;11.02;;
24373;SDS011;12498;50.880;12.096;2022-10-31T04:42:00;22.20;;;9.35;;
24373;SDS011;12498;50.880;12.096;2022-10-31T04:44:26;20.08;;;8.93;;
24373;SDS011;12498;50.880;12.096;2022-10-31T04:46:51;22.25;;;8.50;;
24373;SDS011;12498;50.880;12.096;2022-10-31T04:49:17;19.02;;;8.18;;
24373;SDS011;12498;50.880;12.096;2022-10-31T04:51:42;28.15;;;10.25;;
24373;SDS011;12498;50.880;12.096;2022-10-31T04:54:08;22.77;;;9.25;;
24373;SDS011;12498;50.880;12.096;2022-10-31T04:56:33;20.88;;;9.00;;
24373;SDS011;12498;50.880;12.096;2022-10-31T04:58:59;29.23;;;9.45;;
24373;SDS011;12498;50.880;12.096;2022-10-31T05:01:24;24.40;;;9.65;;
24373;SDS011;12498;50.880;12.096;2022-10-31T05:03:50;29.25;;;9.98;;
24373;SDS011;12498;50.880;12.096;2022-10-31T05:06:16;24.27;;;9.25;;
24373;SDS011;12498;50.880;12.096;2022-10-31T05:08:41;23.67;;;8.90;;
24373;SDS011;12498;50.880;12.096;2022-10-31T05:11:07;24.40;;;8.70;;
24373;SDS011;12498;50.880;12.096;2022-10-31T05:13:33;20.13;;;8.57;;
24373;SDS011;12498;50.880;12.096;2022-10-31T05:15:58;22.42;;;8.68;;
24373;SDS011;12498;50.880;12.096;2022-10-31T05:18:24;19.80;;;8.20;;
24373;SDS011;12498;50.880;12.096;2022-10-31T05:20:49;18.42;;;8.05;;
24373;SDS011;12498;50.880;12.096;2022-10-31T05:23:15;21.67;;;8.20;;
24373;SDS011;12498;50.880;12.096;2022-10-31T05:25:41;17.58;;;8.40;;
24373;SDS011;12498;50.880;12.096;2022-10-31T05:28:07;23.75;;;7.88;;
24373;SDS011;12498;50.880;12.096;2022-10-31T05:30:33;17.83;;;8.45;;
24373;SDS011;12498;50.880;12.096;2022-10-31T05:32:59;24.80;;;8.45;;
24373;SDS011;12498;50.880;12.096;2022-10-31T05:35:27;16.90;;;8.52;;
24373;SDS011;12498;50.880;12.096;2022-10-31T05:37:54;18.75;;;8.73;;
24373;SDS011;12498;50.880;12.096;2022-10-31T05:40:20;18.50;;;8.60;;
24373;SDS011;12498;50.880;12.096;2022-10-31T05:42:46;21.70;;;8.90;;
24373;SDS011;12498;50.880;12.096;2022-10-31T05:45:15;20.33;;;8.45;;
24373;SDS011;12498;50.880;12.096;2022-10-31T05:47:42;18.05;;;8.52;;
24373;SDS011;12498;50.880;12.096;2022-10-31T05:50:14;20.33;;;9.50;;
24373;SDS011;12498;50.880;12.096;2022-10-31T05:52:40;23.27;;;9.23;;
24373;SDS011;12498;50.880;12.096;2022-10-31T05:55:06;20.88;;;9.25;;
24373;SDS011;12498;50.880;12.096;2022-10-31T05:57:32;21.08;;;9.98;;
24373;SDS011;12498;50.880;12.096;2022-10-31T05:59:58;22.75;;;9.77;;
24373;SDS011;12498;50.880;12.096;2022-10-31T06:02:24;22.08;;;11.18;;
24373;SDS011;12498;50.880;12.096;2022-10-31T06:04:50;24.25;;;10.07;;
24373;SDS011;12498;50.880;12.096;2022-10-31T06:07:15;18.52;;;9.55;;
24373;SDS011;12498;50.880;12.096;2022-10-31T06:09:41;18.55;;;8.48;;
24373;SDS011;12498;50.880;12.096;2022-10-31T06:12:06;22.55;;;9.95;;
24373;SDS011;12498;50.880;12.096;2022-10-31T06:14:32;21.92;;;9.50;;
24373;SDS011;12498;50.880;12.096;2022-10-31T06:16:57;20.75;;;9.35;;
24373;SDS011;12498;50.880;12.096;2022-10-31T06:19:23;23.52;;;10.35;;
24373;SDS011;12498;50.880;12.096;2022-10-31T06:21:49;21.80;;;10.15;;
24373;SDS011;12498;50.880;12.096;2022-10-31T06:24:14;27.85;;;11.50;;
24373;SDS011;12498;50.880;12.096;2022-10-31T06:26:41;22.00;;;10.23;;
24373;SDS011;12498;50.880;12.096;2022-10-31T06:29:07;25.25;;;9.73;;
24373;SDS011;12498;50.880;12.096;2022-10-31T06:31:33;29.73;;;11.45;;
24373;SDS011;12498;50.880;12.096;2022-10-31T06:33:58;24.63;;;11.80;;
24373;SDS011;12498;50.880;12.096;2022-10-31T06:36:24;30.15;;;12.68;;
24373;SDS011;12498;50.880;12.096;2022-10-31T06:38:49;21.45;;;12.15;;
24373;SDS011;12498;50.880;12.096;2022-10-31T06:41:15;23.10;;;11.50;;
24373;SDS011;12498;50.880;12.096;2022-10-31T06:43:40;20.50;;;11.10;;
24373;SDS011;12498;50.880;12.096;2022-10-31T06:46:06;23.92;;;12.07;;
24373;SDS011;12498;50.880;12.096;2022-10-31T06:48:32;30.83;;;14.18;;
24373;SDS011;12498;50.880;12.096;2022-10-31T06:51:01;25.95;;;12.95;;
24373;SDS011;12498;50.880;12.096;2022-10-31T06:53:27;25.30;;;13.10;;
24373;SDS011;12498;50.880;12.096;2022-10-31T06:55:55;30.67;;;13.00;;
24373;SDS011;12498;50.880;12.096;2022-10-31T06:58:21;26.98;;;12.95;;
24373;SDS011;12498;50.880;12.096;2022-10-31T07:00:47;28.85;;;12.60;;
24373;SDS011;12498;50.880;12.096;2022-10-31T07:03:13;42.33;;;14.63;;
24373;SDS011;12498;50.880;12.096;2022-10-31T07:05:40;42.83;;;14.48;;
24373;SDS011;12498;50.880;12.096;2022-10-31T07:08:07;38.85;;;15.35;;
24373;SDS011;12498;50.880;12.096;2022-10-31T07:10:36;34.80;;;13.30;;
24373;SDS011;12498;50.880;12.096;2022-10-31T07:13:05;35.42;;;13.32;;
24373;SDS011;12498;50.880;12.096;2022-10-31T07:15:35;44.20;;;15.70;;
24373;SDS011;12498;50.880;12.096;2022-10-31T07:18:06;44.70;;;14.98;;
24373;SDS011;12498;50.880;12.096;2022-10-31T07:20:33;45.28;;;15.93;;
24373;SDS011;12498;50.880;12.096;2022-10-31T07:22:59;39.80;;;14.32;;
24373;SDS011;12498;50.880;12.096;2022-10-31T07:25:25;52.65;;;16.90;;
24373;SDS011;12498;50.880;12.096;2022-10-31T07:27:51;47.90;;;16.85;;
24373;SDS011;12498;50.880;12.096;2022-10-31T07:30:17;38.55;;;14.30;;
24373;SDS011;12498;50.880;12.096;2022-10-31T07:32:49;32.67;;;13.43;;
24373;SDS011;12498;50.880;12.096;2022-10-31T07:35:18;25.20;;;11.65;;
24373;SDS011;12498;50.880;12.096;2022-10-31T07:37:48;33.25;;;13.13;;
24373;SDS011;12498;50.880;12.096;2022-10-31T07:40:14;30.95;;;13.23;;
24373;SDS011;12498;50.880;12.096;2022-10-31T07:42:42;61.10;;;18.80;;
24373;SDS011;12498;50.880;12.096;2022-10-31T07:45:12;41.40;;;15.35;;
24373;SDS011;12498;50.880;12.096;2022-10-31T07:47:43;52.40;;;16.98;;
24373;SDS011;12498;50.880;12.096;2022-10-31T07:50:11;42.95;;;14.73;;
24373;SDS011;12498;50.880;12.096;2022-10-31T07:52:38;42.60;;;14.48;;
24373;SDS011;12498;50.880;12.096;2022-10-31T07:55:04;42.97;;;15.65;;
24373;SDS011;12498;50.880;12.096;2022-10-31T07:57:31;46.83;;;16.33;;
24373;SDS011;12498;50.880;12.096;2022-10-31T07:59:57;36.72;;;14.38;;
24373;SDS011;12498;50.880;12.096;2022-10-31T08:02:23;41.50;;;17.10;;
24373;SDS011;12498;50.880;12.096;2022-10-31T08:04:49;61.35;;;27.65;;
24373;SDS011;12498;50.880;12.096;2022-10-31T08:07:15;43.00;;;19.63;;
24373;SDS011;12498;50.880;12.096;2022-10-31T08:09:41;37.92;;;17.52;;
24373;SDS011;12498;50.880;12.096;2022-10-31T08:12:07;35.42;;;14.00;;
24373;SDS011;12498;50.880;12.096;2022-10-31T08:14:32;29.88;;;12.60;;
24373;SDS011;12498;50.880;12.096;2022-10-31T08:16:58;39.83;;;16.52;;
24373;SDS011;12498;50.880;12.096;2022-10-31T08:19:24;39.72;;;17.02;;
24373;SDS011;12498;50.880;12.096;2022-10-31T08:21:52;52.55;;;20.67;;
24373;SDS011;12498;50.880;12.096;2022-10-31T08:24:20;48.15;;;21.70;;
24373;SDS011;12498;50.880;12.096;2022-10-31T08:26:46;39.92;;;16.02;;
24373;SDS011;12498;50.880;12.096;2022-10-31T08:29:12;38.25;;;15.15;;
24373;SDS011;12498;50.880;12.096;2022-10-31T08:31:38;31.98;;;15.07;;
24373;SDS011;12498;50.880;12.096;2022-10-31T08:34:03;22.35;;;11.27;;
24373;SDS011;12498;50.880;12.096;2022-10-31T08:36:29;22.67;;;10.60;;
24373;SDS011;12498;50.880;12.096;2022-10-31T08:38:55;28.63;;;16.10;;
24373;SDS011;12498;50.880;12.096;2022-10-31T08:41:21;39.90;;;20.98;;
24373;SDS011;12498;50.880;12.096;2022-10-31T08:43:46;33.13;;;15.68;;
24373;SDS011;12498;50.880;12.096;2022-10-31T08:46:12;25.08;;;13.05;;
24373;SDS011;12498;50.880;12.096;2022-10-31T08:48:38;19.17;;;10.75;;
24373;SDS011;12498;50.880;12.096;2022-10-31T08:51:04;23.58;;;10.77;;
24373;SDS011;12498;50.880;12.096;2022-10-31T08:53:30;22.00;;;9.57;;
24373;SDS011;12498;50.880;12.096;2022-10-31T08:55:56;20.10;;;10.15;;
24373;SDS011;12498;50.880;12.096;2022-10-31T08:58:22;23.65;;;9.82;;
24373;SDS011;12498;50.880;12.096;2022-10-31T09:00:49;26.38;;;11.02;;
24373;SDS011;12498;50.880;12.096;2022-10-31T09:03:18;23.27;;;11.02;;
24373;SDS011;12498;50.880;12.096;2022-10-31T09:05:48;29.73;;;13.90;;
24373;SDS011;12498;50.880;12.096;2022-10-31T09:08:14;28.60;;;12.50;;
24373;SDS011;12498;50.880;12.096;2022-10-31T09:10:41;32.70;;;18.50;;
24373;SDS011;12498;50.880;12.096;2022-10-31T09:13:09;25.27;;;9.30;;
24373;SDS011;12498;50.880;12.096;2022-10-31T09:15:37;20.85;;;9.10;;
24373;SDS011;12498;50.880;12.096;2022-10-31T09:18:04;22.38;;;9.57;;
24373;SDS011;12498;50.880;12.096;2022-10-31T09:20:31;25.17;;;10.45;;
24373;SDS011;12498;50.880;12.096;2022-10-31T09:22:58;27.83;;;12.75;;
24373;SDS011;12498;50.880;12.096;2022-10-31T09:25:26;25.30;;;11.65;;
24373;SDS011;12498;50.880;12.096;2022-10-31T09:27:56;23.50;;;10.20;;
24373;SDS011;12498;50.880;12.096;2022-10-31T09:30:22;21.85;;;10.68;;
24373;SDS011;12498;50.880;12.096;2022-10-31T09:32:48;28.73;;;9.85;;
24373;SDS011;12498;50.880;12.096;2022-10-31T09:35:19;19.20;;;10.45;;
24373;SDS011;12498;50.880;12.096;2022-10-31T09:37:45;20.75;;;10.48;;
24373;SDS011;12498;50.880;12.096;2022-10-31T09:40:10;19.92;;;8.85;;
24373;SDS011;12498;50.880;12.096;2022-10-31T09:42:45;23.98;;;8.75;;
24373;SDS011;12498;50.880;12.096;2022-10-31T09:45:41;14.35;;;8.75;;
24373;SDS011;12498;50.880;12.096;2022-10-31T09:50:48;20.08;;;8.68;;
24373;SDS011;12498;50.880;12.096;2022-10-31T09:53:38;19.23;;;8.48;;
24373;SDS011;12498;50.880;12.096;2022-10-31T09:56:23;18.40;;;8.70;;
24373;SDS011;12498;50.880;12.096;2022-10-31T09:58:51;22.50;;;9.43;;
24373;SDS011;12498;50.880;12.096;2022-10-31T10:03:59;31.63;;;11.35;;
24373;SDS011;12498;50.880;12.096;2022-10-31T10:06:32;24.75;;;11.30;;
24373;SDS011;12498;50.880;12.096;2022-10-31T10:09:00;28.02;;;11.50;;
24373;SDS011;12498;50.880;12.096;2022-10-31T10:14:29;27.10;;;11.35;;
24373;SDS011;12498;50.880;12.096;2022-10-31T10:22:38;25.92;;;11.60;;
24373;SDS011;12498;50.880;12.096;2022-10-31T10:25:19;25.83;;;12.05;;
24373;SDS011;12498;50.880;12.096;2022-10-31T10:27:58;23.83;;;11.90;;
24373;SDS011;12498;50.880;12.096;2022-10-31T10:30:50;28.77;;;12.30;;
24373;SDS011;12498;50.880;12.096;2022-10-31T10:33:35;30.67;;;12.40;;
24373;SDS011;12498;50.880;12.096;2022-10-31T10:36:13;29.38;;;11.90;;
24373;SDS011;12498;50.880;12.096;2022-10-31T10:41:18;27.80;;;12.88;;
24373;SDS011;12498;50.880;12.096;2022-10-31T10:43:45;27.08;;;11.65;;
24373;SDS011;12498;50.880;12.096;2022-10-31T10:51:43;24.73;;;11.40;;
24373;SDS011;12498;50.880;12.096;2022-10-31T11:02:50;28.63;;;11.23;;
24373;SDS011;12498;50.880;12.096;2022-10-31T11:05:25;27.08;;;10.52;;
24373;SDS011;12498;50.880;12.096;2022-10-31T11:08:22;21.88;;;11.10;;
24373;SDS011;12498;50.880;12.096;2022-10-31T11:10:56;22.52;;;10.52;;
24373;SDS011;12498;50.880;12.096;2022-10-31T11:13:29;19.65;;;10.05;;
24373;SDS011;12498;50.880;12.096;2022-10-31T11:16:06;24.65;;;9.73;;
24373;SDS011;12498;50.880;12.096;2022-10-31T11:18:37;21.90;;;10.00;;
24373;SDS011;12498;50.880;12.096;2022-10-31T11:21:04;22.17;;;9.73;;
24373;SDS011;12498;50.880;12.096;2022-10-31T11:23:31;22.95;;;11.60;;
24373;SDS011;12498;50.880;12.096;2022-10-31T11:25:59;23.90;;;13.90;;
24373;SDS011;12498;50.880;12.096;2022-10-31T11:28:26;30.23;;;11.47;;
24373;SDS011;12498;50.880;12.096;2022-10-31T11:31:07;24.95;;;10.75;;
24373;SDS011;12498;50.880;12.096;2022-10-31T11:33:36;24.02;;;10.82;;
24373;SDS011;12498;50.880;12.096;2022-10-31T11:38:46;27.25;;;12.73;;
24373;SDS011;12498;50.880;12.096;2022-10-31T11:43:52;24.50;;;11.55;;
24373;SDS011;12498;50.880;12.096;2022-10-31T11:47:05;24.90;;;12.20;;
24373;SDS011;12498;50.880;12.096;2022-10-31T11:51:52;23.52;;;11.40;;
24373;SDS011;12498;50.880;12.096;2022-10-31T11:54:24;28.37;;;12.83;;
24373;SDS011;12498;50.880;12.096;2022-10-31T11:56:55;26.33;;;12.02;;
24373;SDS011;12498;50.880;12.096;2022-10-31T11:59:25;26.45;;;11.30;;
24373;SDS011;12498;50.880;12.096;2022-10-31T12:01:53;24.20;;;12.07;;
24373;SDS011;12498;50.880;12.096;2022-10-31T12:04:23;30.17;;;13.50;;
24373;SDS011;12498;50.880;12.096;2022-10-31T12:06:57;30.83;;;12.88;;
24373;SDS011;12498;50.880;12.096;2022-10-31T12:09:25;27.63;;;12.65;;
24373;SDS011;12498;50.880;12.096;2022-10-31T12:17:58;29.90;;;14.93;;
24373;SDS011;12498;50.880;12.096;2022-10-31T12:29:02;31.30;;;14.35;;
24373;SDS011;12498;50.880;12.096;2022-10-31T12:39:30;26.90;;;15.32;;
24373;SDS011;12498;50.880;12.096;2022-10-31T12:45:22;34.65;;;17.05;;
24373;SDS011;12498;50.880;12.096;2022-10-31T12:50:52;39.13;;;16.48;;
24373;SDS011;12498;50.880;12.096;2022-10-31T12:58:55;28.65;;;14.50;;
24373;SDS011;12498;50.880;12.096;2022-10-31T13:01:28;30.63;;;16.27;;
24373;SDS011;12498;50.880;12.096;2022-10-31T13:07:05;32.90;;;16.58;;
24373;SDS011;12498;50.880;12.096;2022-10-31T13:09:38;31.88;;;15.48;;
24373;SDS011;12498;50.880;12.096;2022-10-31T13:12:26;32.97;;;16.58;;
24373;SDS011;12498;50.880;12.096;2022-10-31T13:14:55;56.55;;;28.88;;
24373;SDS011;12498;50.880;12.096;2022-10-31T13:17:38;44.38;;;24.88;;
24373;SDS011;12498;50.880;12.096;2022-10-31T13:22:46;42.65;;;18.17;;
24373;SDS011;12498;50.880;12.096;2022-10-31T13:25:16;33.78;;;15.95;;
24373;SDS011;12498;50.880;12.096;2022-10-31T13:27:57;41.05;;;18.58;;
24373;SDS011;12498;50.880;12.096;2022-10-31T13:30:44;44.08;;;20.42;;
24373;SDS011;12498;50.880;12.096;2022-10-31T13:33:21;37.70;;;18.00;;
24373;SDS011;12498;50.880;12.096;2022-10-31T13:38:32;30.70;;;15.57;;
24373;SDS011;12498;50.880;12.096;2022-10-31T13:48:57;36.67;;;17.77;;
24373;SDS011;12498;50.880;12.096;2022-10-31T13:51:26;36.13;;;16.55;;
24373;SDS011;12498;50.880;12.096;2022-10-31T13:53:59;33.47;;;15.85;;
24373;SDS011;12498;50.880;12.096;2022-10-31T13:56:31;38.35;;;17.20;;
24373;SDS011;12498;50.880;12.096;2022-10-31T14:01:33;35.00;;;16.17;;
24373;SDS011;12498;50.880;12.096;2022-10-31T14:11:50;36.65;;;16.00;;
24373;SDS011;12498;50.880;12.096;2022-10-31T14:14:16;36.22;;;15.88;;
24373;SDS011;12498;50.880;12.096;2022-10-31T14:16:45;39.60;;;22.48;;
24373;SDS011;12498;50.880;12.096;2022-10-31T14:19:18;39.00;;;19.88;;
24373;SDS011;12498;50.880;12.096;2022-10-31T14:21:49;38.97;;;18.38;;
24373;SDS011;12498;50.880;12.096;2022-10-31T14:26:51;61.42;;;31.25;;
24373;SDS011;12498;50.880;12.096;2022-10-31T14:31:51;45.38;;;22.77;;
24373;SDS011;12498;50.880;12.096;2022-10-31T14:37:01;30.77;;;18.58;;
24373;SDS011;12498;50.880;12.096;2022-10-31T14:45:27;34.47;;;17.73;;
24373;SDS011;12498;50.880;12.096;2022-10-31T14:48:23;36.88;;;17.48;;
24373;SDS011;12498;50.880;12.096;2022-10-31T14:51:15;37.85;;;18.38;;
24373;SDS011;12498;50.880;12.096;2022-10-31T14:53:53;34.80;;;18.98;;
24373;SDS011;12498;50.880;12.096;2022-10-31T14:56:23;32.72;;;16.70;;
24373;SDS011;12498;50.880;12.096;2022-10-31T14:58:57;38.78;;;17.70;;
24373;SDS011;12498;50.880;12.096;2022-10-31T15:03:53;40.05;;;17.15;;
24373;SDS011;12498;50.880;12.096;2022-10-31T15:06:28;34.78;;;16.92;;
24373;SDS011;12498;50.880;12.096;2022-10-31T15:09:04;30.30;;;16.23;;
24373;SDS011;12498;50.880;12.096;2022-10-31T15:11:35;29.00;;;16.55;;
24373;SDS011;12498;50.880;12.096;2022-10-31T15:14:14;41.45;;;20.50;;
24373;SDS011;12498;50.880;12.096;2022-10-31T15:17:02;34.55;;;20.13;;
24373;SDS011;12498;50.880;12.096;2022-10-31T15:19:30;38.10;;;19.08;;
24373;SDS011;12498;50.880;12.096;2022-10-31T15:21:57;39.67;;;18.02;;
24373;SDS011;12498;50.880;12.096;2022-10-31T15:27:21;36.97;;;18.15;;
24373;SDS011;12498;50.880;12.096;2022-10-31T15:29:49;42.10;;;19.05;;
24373;SDS011;12498;50.880;12.096;2022-10-31T15:32:18;36.55;;;17.77;;
24373;SDS011;12498;50.880;12.096;2022-10-31T15:34:49;35.72;;;18.65;;
24373;SDS011;12498;50.880;12.096;2022-10-31T15:37:20;38.10;;;18.05;;
24373;SDS011;12498;50.880;12.096;2022-10-31T15:39:47;34.28;;;18.98;;
24373;SDS011;12498;50.880;12.096;2022-10-31T15:45:05;43.25;;;19.45;;
24373;SDS011;12498;50.880;12.096;2022-10-31T15:47:48;43.22;;;17.50;;
24373;SDS011;12498;50.880;12.096;2022-10-31T15:53:05;32.70;;;18.30;;
24373;SDS011;12498;50.880;12.096;2022-10-31T15:56:02;36.45;;;19.27;;
24373;SDS011;12498;50.880;12.096;2022-10-31T15:58:39;37.10;;;19.17;;
24373;SDS011;12498;50.880;12.096;2022-10-31T16:04:22;37.38;;;19.85;;
24373;SDS011;12498;50.880;12.096;2022-10-31T16:06:55;39.92;;;20.48;;
24373;SDS011;12498;50.880;12.096;2022-10-31T16:09:47;46.55;;;22.25;;
24373;SDS011;12498;50.880;12.096;2022-10-31T16:12:37;50.42;;;24.92;;
24373;SDS011;12498;50.880;12.096;2022-10-31T16:15:15;43.88;;;22.90;;
24373;SDS011;12498;50.880;12.096;2022-10-31T16:17:43;40.58;;;23.05;;
24373;SDS011;12498;50.880;12.096;2022-10-31T16:20:25;43.97;;;24.57;;
24373;SDS011;12498;50.880;12.096;2022-10-31T16:22:55;45.50;;;23.58;;
24373;SDS011;12498;50.880;12.096;2022-10-31T16:25:26;45.08;;;24.75;;
24373;SDS011;12498;50.880;12.096;2022-10-31T16:27:58;46.33;;;24.63;;
24373;SDS011;12498;50.880;12.096;2022-10-31T16:33:51;49.17;;;22.88;;
24373;SDS011;12498;50.880;12.096;2022-10-31T16:35:58;38.75;;;22.35;;
24373;SDS011;12498;50.880;12.096;2022-10-31T16:38:25;44.22;;;23.83;;
24373;SDS011;12498;50.880;12.096;2022-10-31T16:40:51;43.20;;;23.77;;
24373;SDS011;12498;50.880;12.096;2022-10-31T16:43:17;44.58;;;23.55;;
24373;SDS011;12498;50.880;12.096;2022-10-31T16:45:49;54.13;;;24.25;;
24373;SDS011;12498;50.880;12.096;2022-10-31T16:48:17;57.92;;;27.60;;
24373;SDS011;12498;50.880;12.096;2022-10-31T16:50:47;59.33;;;27.98;;
24373;SDS011;12498;50.880;12.096;2022-10-31T16:53:17;57.58;;;27.20;;
24373;SDS011;12498;50.880;12.096;2022-10-31T16:55:44;51.78;;;26.20;;
24373;SDS011;12498;50.880;12.096;2022-10-31T16:58:15;56.10;;;32.15;;
24373;SDS011;12498;50.880;12.096;2022-10-31T17:00:43;52.58;;;30.23;;
24373;SDS011;12498;50.880;12.096;2022-10-31T17:03:09;54.67;;;30.13;;
24373;SDS011;12498;50.880;12.096;2022-10-31T17:05:35;61.88;;;30.50;;
24373;SDS011;12498;50.880;12.096;2022-10-31T17:08:02;51.00;;;29.85;;